Time;durP1;ratioP1;P1;durP2;ratioP2;P2;SDS_P1;SDS_P2;PMS_P1;PMS_P2;Temp;Humidity;BMP_temperature;BMP_pressure;BME280_temperature;BME280_humidity;BME280_pressure;Samples;Min_cycle;Max_cycle;Signal;HPM_P1;HPM_P2
2022/10/31 00:00:26;;;;;;;19.75;7.78;;;;;;;;;;5092033;28;20531;-57
2022/10/31 00:02:51;;;;;;;18.42;8.82;;;;;;;;;;5093560;28;20295;-57
2022/10/31 00:05:16;;;;;;;16.92;8.45;;;;;;;;;;5090320;28;20991;-57
2022/10/31 00:07:41;;;;;;;17.75;8.80;;;;;;;;;;5086238;28;20465;-56
2022/10/31 00:10:07;;;;;;;14.80;7.93;;;;;;;;;;5081422;28;20090;-56
2022/10/31 00:12:32;;;;;;;17.35;8.32;;;;;;;;;;5092345;28;20085;-56
2022/10/31 00:14:57;;;;;;;15.05;7.47;;;;;;;;;;5091840;28;20432;-57
2022/10/31 00:17:23;;;;;;;21.88;8.30;;;;;;;;;;5091027;28;20022;-56
2022/10/31 00:19:48;;;;;;;14.13;7.90;;;;;;;;;;5091943;28;20027;-57
2022/10/31 00:22:13;;;;;;;19.17;9.30;;;;;;;;;;5088924;28;20466;-57
2022/10/31 00:24:38;;;;;;;18.65;9.88;;;;;;;;;;5091006;28;20023;-58
2022/10/31 00:27:04;;;;;;;18.50;9.10;;;;;;;;;;5087472;28;20031;-57
2022/10/31 00:29:29;;;;;;;17.27;8.05;;;;;;;;;;5084767;28;20353;-58
2022/10/31 00:31:54;;;;;;;17.63;7.95;;;;;;;;;;5081799;28;20434;-56
2022/10/31 00:34:19;;;;;;;16.85;7.63;;;;;;;;;;5078648;28;20047;-56
2022/10/31 00:36:44;;;;;;;17.02;8.13;;;;;;;;;;5085462;28;20564;-57
2022/10/31 00:39:10;;;;;;;16.90;8.77;;;;;;;;;;5088987;28;20043;-57
2022/10/31 00:41:35;;;;;;;18.33;9.18;;;;;;;;;;5080843;28;20020;-57
2022/10/31 00:44:00;;;;;;;12.73;8.18;;;;;;;;;;5078639;28;20087;-57
2022/10/31 00:46:25;;;;;;;23.13;8.90;;;;;;;;;;5098091;28;20331;-57
2022/10/31 00:48:51;;;;;;;21.50;9.75;;;;;;;;;;5091535;28;20078;-54
2022/10/31 00:51:16;;;;;;;17.52;8.10;;;;;;;;;;5088362;28;20036;-58
2022/10/31 00:53:41;;;;;;;18.52;7.78;;;;;;;;;;5089132;28;20051;-56
2022/10/31 00:56:07;;;;;;;17.20;7.68;;;;;;;;;;5085318;28;20486;-55
2022/10/31 00:58:32;;;;;;;19.73;9.27;;;;;;;;;;5083793;28;20493;-57
2022/10/31 01:00:57;;;;;;;17.27;8.30;;;;;;;;;;5108685;28;20449;-57
2022/10/31 01:03:27;;;;;;;24.98;8.98;;;;;;;;;;5090047;28;20020;-55
2022/10/31 01:05:58;;;;;;;14.07;8.25;;;;;;;;;;5088634;28;20047;-55
2022/10/31 01:08:24;;;;;;;20.15;8.73;;;;;;;;;;5081128;28;20259;-55
2022/10/31 01:11:02;;;;;;;16.17;7.90;;;;;;;;;;5084884;28;20027;-56
2022/10/31 01:13:27;;;;;;;18.35;8.65;;;;;;;;;;5078823;28;20585;-57
2022/10/31 01:15:55;;;;;;;17.25;8.25;;;;;;;;;;5081441;28;20100;-55
2022/10/31 01:18:21;;;;;;;27.13;13.90;;;;;;;;;;5088096;28;20364;-56
2022/10/31 01:20:46;;;;;;;21.58;11.77;;;;;;;;;;5096646;28;20015;-57
2022/10/31 01:23:11;;;;;;;25.67;11.88;;;;;;;;;;5092546;28;20052;-56
2022/10/31 01:25:37;;;;;;;21.83;11.02;;;;;;;;;;5092237;28;20020;-55
2022/10/31 01:28:02;;;;;;;26.40;12.88;;;;;;;;;;5087650;28;20225;-55
2022/10/31 01:30:27;;;;;;;26.83;13.38;;;;;;;;;;5091051;28;20082;-56
2022/10/31 01:32:52;;;;;;;24.23;12.90;;;;;;;;;;5090612;28;20005;-55
2022/10/31 01:35:18;;;;;;;24.95;13.52;;;;;;;;;;5091209;28;20039;-56
2022/10/31 01:37:43;;;;;;;21.23;12.93;;;;;;;;;;5086984;28;20025;-56
2022/10/31 01:40:08;;;;;;;18.10;9.73;;;;;;;;;;5093923;28;20095;-56
2022/10/31 01:42:34;;;;;;;20.30;9.60;;;;;;;;;;5078052;28;20116;-56
2022/10/31 01:45:00;;;;;;;17.83;9.05;;;;;;;;;;5091663;28;20431;-56
2022/10/31 01:47:39;;;;;;;15.23;8.73;;;;;;;;;;5092790;28;20127;-56
2022/10/31 01:50:05;;;;;;;18.83;8.20;;;;;;;;;;5086436;28;20076;-57
2022/10/31 01:52:32;;;;;;;15.70;8.18;;;;;;;;;;5093810;28;20028;-56
2022/10/31 01:55:03;;;;;;;17.27;9.75;;;;;;;;;;5084964;28;20396;-57
2022/10/31 01:57:29;;;;;;;19.77;8.98;;;;;;;;;;5091032;28;20062;-56
2022/10/31 01:59:55;;;;;;;16.67;9.68;;;;;;;;;;5067993;28;20561;-57
2022/10/31 02:02:20;;;;;;;20.48;9.20;;;;;;;;;;5112268;27;20081;-56
2022/10/31 02:04:45;;;;;;;18.58;8.55;;;;;;;;;;5086291;28;20420;-56
2022/10/31 02:07:14;;;;;;;17.63;8.93;;;;;;;;;;5089640;28;20056;-55
2022/10/31 02:09:40;;;;;;;14.55;8.00;;;;;;;;;;5092439;28;20036;-56
2022/10/31 02:12:05;;;;;;;18.55;8.43;;;;;;;;;;5079076;28;20040;-56
2022/10/31 02:14:30;;;;;;;26.13;8.68;;;;;;;;;;5088473;28;20032;-55
2022/10/31 02:16:56;;;;;;;17.23;8.68;;;;;;;;;;5098353;28;20562;-55
2022/10/31 02:19:40;;;;;;;22.58;8.32;;;;;;;;;;5094966;28;20063;-55
2022/10/31 02:22:08;;;;;;;14.32;8.23;;;;;;;;;;5088957;28;20073;-56
2022/10/31 02:24:40;;;;;;;14.90;8.27;;;;;;;;;;5089529;28;20044;-55
2022/10/31 02:27:08;;;;;;;23.92;8.38;;;;;;;;;;5083018;28;20032;-55
2022/10/31 02:29:39;;;;;;;13.40;8.07;;;;;;;;;;5095261;28;20219;-55
2022/10/31 02:32:25;;;;;;;22.08;8.75;;;;;;;;;;5087124;28;20095;-55
2022/10/31 02:35:13;;;;;;;18.95;8.00;;;;;;;;;;5087405;28;20152;-54
2022/10/31 02:37:53;;;;;;;15.93;8.10;;;;;;;;;;5046672;28;20043;-56
2022/10/31 02:40:19;;;;;;;18.80;7.95;;;;;;;;;;5083073;28;20027;-56
2022/10/31 02:42:51;;;;;;;16.55;8.55;;;;;;;;;;5090170;28;20039;-56
2022/10/31 02:45:21;;;;;;;19.08;8.93;;;;;;;;;;5094796;28;20346;-55
2022/10/31 02:47:47;;;;;;;15.02;7.80;;;;;;;;;;5079964;28;20019;-56
2022/10/31 02:50:19;;;;;;;16.00;8.05;;;;;;;;;;5088428;28;20040;-57
2022/10/31 02:52:44;;;;;;;17.38;8.32;;;;;;;;;;5079988;28;20547;-57
2022/10/31 02:55:25;;;;;;;21.50;8.20;;;;;;;;;;5083590;28;20054;-54
2022/10/31 02:57:51;;;;;;;15.05;7.45;;;;;;;;;;5082707;28;20050;-55
2022/10/31 03:00:16;;;;;;;21.25;8.85;;;;;;;;;;5086120;28;20024;-55
2022/10/31 03:02:47;;;;;;;19.58;8.52;;;;;;;;;;5069186;28;20347;-55
2022/10/31 03:05:13;;;;;;;20.10;8.68;;;;;;;;;;5088906;28;20482;-54
2022/10/31 03:07:44;;;;;;;17.58;8.77;;;;;;;;;;5093695;28;20055;-55
2022/10/31 03:10:15;;;;;;;23.77;8.93;;;;;;;;;;5087858;28;20087;-55
2022/10/31 03:12:54;;;;;;;17.13;8.80;;;;;;;;;;5083053;28;20020;-54
2022/10/31 03:15:24;;;;;;;18.05;9.32;;;;;;;;;;5081801;28;20028;-56
2022/10/31 03:18:16;;;;;;;19.90;8.23;;;;;;;;;;5090813;28;20102;-55
2022/10/31 03:21:10;;;;;;;16.60;7.93;;;;;;;;;;5075925;28;20479;-55
2022/10/31 03:23:36;;;;;;;16.88;8.10;;;;;;;;;;5071379;28;20210;-55
2022/10/31 03:26:01;;;;;;;20.23;8.73;;;;;;;;;;5080288;28;20115;-54
2022/10/31 03:28:28;;;;;;;15.43;8.00;;;;;;;;;;5077616;28;20409;-56
2022/10/31 03:30:53;;;;;;;17.15;7.80;;;;;;;;;;5091574;28;20030;-55
2022/10/31 03:33:21;;;;;;;14.55;8.43;;;;;;;;;;5085768;28;20016;-54
2022/10/31 03:35:47;;;;;;;16.40;8.13;;;;;;;;;;5081094;28;20094;-55
2022/10/31 03:38:12;;;;;;;16.33;8.35;;;;;;;;;;5083217;28;20746;-55
2022/10/31 03:40:37;;;;;;;25.15;8.73;;;;;;;;;;5090293;28;20039;-54
2022/10/31 03:43:08;;;;;;;24.67;9.45;;;;;;;;;;5088748;28;20045;-55
2022/10/31 03:45:35;;;;;;;17.70;9.05;;;;;;;;;;5076731;28;20020;-55
2022/10/31 03:48:01;;;;;;;24.25;10.30;;;;;;;;;;5088442;28;20366;-54
2022/10/31 03:50:28;;;;;;;19.42;8.82;;;;;;;;;;5091635;28;20043;-55
2022/10/31 03:52:59;;;;;;;19.25;9.43;;;;;;;;;;5087915;28;20103;-55
2022/10/31 03:55:38;;;;;;;17.58;9.82;;;;;;;;;;5090357;28;20035;-55
2022/10/31 03:58:03;;;;;;;16.25;9.25;;;;;;;;;;5086860;28;20118;-56
2022/10/31 04:00:29;;;;;;;22.90;10.43;;;;;;;;;;5085473;28;20673;-56
2022/10/31 04:03:09;;;;;;;20.83;9.85;;;;;;;;;;5091214;28;20396;-55
2022/10/31 04:05:34;;;;;;;19.70;9.32;;;;;;;;;;5081909;28;20109;-55
2022/10/31 04:08:00;;;;;;;18.92;10.05;;;;;;;;;;5090498;28;20081;-55
2022/10/31 04:10:25;;;;;;;21.70;10.13;;;;;;;;;;5090587;28;20043;-55
2022/10/31 04:12:52;;;;;;;18.85;9.70;;;;;;;;;;5095574;28;20415;-56
2022/10/31 04:15:17;;;;;;;22.20;10.27;;;;;;;;;;5067378;28;20035;-56
2022/10/31 04:17:42;;;;;;;29.42;11.65;;;;;;;;;;5080143;28;20019;-56
2022/10/31 04:20:08;;;;;;;24.00;11.40;;;;;;;;;;5092213;28;20031;-54
2022/10/31 04:22:33;;;;;;;23.23;11.35;;;;;;;;;;5092439;28;20470;-55
2022/10/31 04:24:58;;;;;;;22.35;11.38;;;;;;;;;;5081625;28;20020;-55
2022/10/31 04:27:23;;;;;;;23.15;11.68;;;;;;;;;;5084069;28;20108;-56
2022/10/31 04:29:49;;;;;;;24.50;12.05;;;;;;;;;;5095185;28;20028;-55
2022/10/31 04:32:14;;;;;;;26.50;12.07;;;;;;;;;;5093885;28;20144;-54
2022/10/31 04:34:39;;;;;;;39.47;12.98;;;;;;;;;;5092735;28;20045;-54
2022/10/31 04:37:04;;;;;;;21.35;11.23;;;;;;;;;;5097343;28;20020;-56
2022/10/31 04:39:30;;;;;;;20.92;10.15;;;;;;;;;;5090082;28;20157;-55
2022/10/31 04:41:55;;;;;;;19.50;8.85;;;;;;;;;;5086013;28;20106;-56
2022/10/31 04:44:20;;;;;;;16.67;9.30;;;;;;;;;;5086537;28;20028;-56
2022/10/31 04:46:45;;;;;;;18.20;8.50;;;;;;;;;;5081688;28;20028;-56
2022/10/31 04:49:11;;;;;;;16.92;8.75;;;;;;;;;;5094572;28;20051;-55
2022/10/31 04:51:36;;;;;;;19.63;8.73;;;;;;;;;;5096811;28;20024;-54
2022/10/31 04:54:01;;;;;;;16.50;9.75;;;;;;;;;;5085414;28;20106;-55
2022/10/31 04:56:26;;;;;;;23.75;9.70;;;;;;;;;;5085433;28;20024;-55
2022/10/31 04:58:51;;;;;;;19.30;9.60;;;;;;;;;;5079412;28;20047;-55
2022/10/31 05:01:17;;;;;;;19.15;9.77;;;;;;;;;;5086552;28;20531;-56
2022/10/31 05:03:42;;;;;;;17.35;8.98;;;;;;;;;;5090239;28;20079;-56
2022/10/31 05:06:07;;;;;;;20.27;10.55;;;;;;;;;;5081478;28;20044;-55
2022/10/31 05:08:32;;;;;;;21.63;9.65;;;;;;;;;;5072924;28;20500;-55
2022/10/31 05:11:01;;;;;;;19.80;9.43;;;;;;;;;;5080180;28;20085;-55
2022/10/31 05:13:27;;;;;;;22.73;9.82;;;;;;;;;;5077055;28;20352;-56
2022/10/31 05:15:52;;;;;;;16.50;9.48;;;;;;;;;;5089996;28;20016;-55
2022/10/31 05:18:17;;;;;;;20.52;10.43;;;;;;;;;;5089761;28;20254;-55
2022/10/31 05:20:42;;;;;;;20.70;9.70;;;;;;;;;;5080490;28;20020;-56
2022/10/31 05:23:08;;;;;;;18.35;10.23;;;;;;;;;;5085056;28;20032;-55
2022/10/31 05:25:33;;;;;;;24.35;10.20;;;;;;;;;;5088179;28;20020;-56
2022/10/31 05:27:58;;;;;;;18.08;9.63;;;;;;;;;;5076504;28;20028;-56
2022/10/31 05:30:24;;;;;;;21.80;10.23;;;;;;;;;;5083791;28;20036;-56
2022/10/31 05:32:50;;;;;;;19.52;10.05;;;;;;;;;;5077564;28;20061;-56
2022/10/31 05:35:17;;;;;;;20.02;10.38;;;;;;;;;;5084401;28;20024;-56
2022/10/31 05:37:42;;;;;;;19.77;10.23;;;;;;;;;;5073788;28;20371;-55
2022/10/31 05:40:08;;;;;;;23.70;10.55;;;;;;;;;;5079626;28;20058;-56
2022/10/31 05:42:33;;;;;;;20.85;10.57;;;;;;;;;;5091782;28;20027;-58
2022/10/31 05:44:58;;;;;;;20.65;10.52;;;;;;;;;;5076668;28;20034;-56
2022/10/31 05:47:24;;;;;;;26.02;10.75;;;;;;;;;;5076291;28;20104;-53
2022/10/31 05:49:49;;;;;;;19.50;11.02;;;;;;;;;;5078818;28;20035;-55
2022/10/31 05:52:14;;;;;;;20.45;10.77;;;;;;;;;;5084035;28;20020;-58
2022/10/31 05:54:39;;;;;;;23.42;11.55;;;;;;;;;;5083355;28;20059;-55
2022/10/31 05:57:05;;;;;;;26.00;11.57;;;;;;;;;;5091491;28;20027;-56
2022/10/31 05:59:30;;;;;;;17.70;10.65;;;;;;;;;;5082232;28;20039;-55
2022/10/31 06:01:55;;;;;;;25.63;10.68;;;;;;;;;;5096449;28;20386;-56
2022/10/31 06:04:20;;;;;;;20.23;9.98;;;;;;;;;;5087736;28;20024;-57
2022/10/31 06:06:46;;;;;;;21.70;10.65;;;;;;;;;;5083834;28;20040;-54
2022/10/31 06:09:11;;;;;;;38.83;11.70;;;;;;;;;;5087637;28;20051;-57
2022/10/31 06:11:36;;;;;;;29.10;13.63;;;;;;;;;;5086881;28;20110;-57
2022/10/31 06:14:01;;;;;;;57.72;14.82;;;;;;;;;;5090097;28;20051;-55
2022/10/31 06:16:27;;;;;;;76.00;16.08;;;;;;;;;;5085022;28;20105;-54
2022/10/31 06:18:52;;;;;;;78.15;16.90;;;;;;;;;;5079096;27;20459;-55
2022/10/31 06:21:17;;;;;;;62.67;16.00;;;;;;;;;;5088008;28;20024;-58
2022/10/31 06:23:43;;;;;;;71.20;15.77;;;;;;;;;;5094245;28;20099;-55
2022/10/31 06:26:08;;;;;;;35.10;11.55;;;;;;;;;;5097674;28;20093;-53
2022/10/31 06:28:33;;;;;;;30.30;11.32;;;;;;;;;;5087967;28;20030;-54
2022/10/31 06:30:58;;;;;;;50.83;12.15;;;;;;;;;;5093528;28;20030;-55
2022/10/31 06:33:24;;;;;;;42.92;10.85;;;;;;;;;;5093943;28;20106;-55
2022/10/31 06:35:49;;;;;;;47.92;12.30;;;;;;;;;;5084613;28;20020;-57
2022/10/31 06:38:14;;;;;;;43.35;12.30;;;;;;;;;;5077930;28;20035;-55
2022/10/31 06:40:39;;;;;;;57.35;13.20;;;;;;;;;;5085768;28;20372;-55
2022/10/31 06:43:05;;;;;;;48.97;13.50;;;;;;;;;;5074787;28;20016;-55
2022/10/31 06:45:30;;;;;;;53.00;13.05;;;;;;;;;;5076306;28;20090;-56
2022/10/31 06:47:55;;;;;;;70.25;13.73;;;;;;;;;;5090743;28;20529;-55
2022/10/31 06:50:21;;;;;;;82.28;14.85;;;;;;;;;;5095376;28;20028;-57
2022/10/31 06:52:49;;;;;;;55.13;14.35;;;;;;;;;;5099041;28;20019;-56
2022/10/31 06:55:15;;;;;;;58.80;13.45;;;;;;;;;;5086568;28;20055;-54
2022/10/31 06:57:40;;;;;;;75.45;13.70;;;;;;;;;;5103698;28;20028;-54
2022/10/31 07:00:06;;;;;;;69.68;14.93;;;;;;;;;;5090299;28;20608;-55
2022/10/31 07:02:31;;;;;;;84.80;14.75;;;;;;;;;;5096862;28;20458;-55
2022/10/31 07:04:56;;;;;;;43.15;13.23;;;;;;;;;;5074922;28;20439;-56
2022/10/31 07:07:21;;;;;;;53.60;14.60;;;;;;;;;;5084713;28;21674;-55
2022/10/31 07:09:46;;;;;;;48.63;14.90;;;;;;;;;;5092968;28;20119;-56
2022/10/31 07:12:12;;;;;;;55.88;14.75;;;;;;;;;;5085876;28;20028;-57
2022/10/31 07:14:37;;;;;;;36.35;13.50;;;;;;;;;;5081331;28;20031;-57
2022/10/31 07:17:02;;;;;;;48.00;14.57;;;;;;;;;;5081321;28;20033;-57
2022/10/31 07:19:27;;;;;;;58.72;14.45;;;;;;;;;;5089823;28;20441;-57
2022/10/31 07:21:53;;;;;;;58.28;12.25;;;;;;;;;;5092884;28;20120;-57
2022/10/31 07:24:18;;;;;;;37.83;12.02;;;;;;;;;;5082789;28;20037;-57
2022/10/31 07:26:45;;;;;;;35.25;12.63;;;;;;;;;;5084790;28;20566;-57
2022/10/31 07:29:11;;;;;;;28.05;12.27;;;;;;;;;;5087340;28;20027;-57
2022/10/31 07:31:36;;;;;;;29.48;12.15;;;;;;;;;;5087992;28;20062;-56
2022/10/31 07:34:01;;;;;;;29.80;12.48;;;;;;;;;;5080330;28;20433;-55
2022/10/31 07:36:26;;;;;;;32.58;13.35;;;;;;;;;;5080144;28;20376;-55
2022/10/31 07:38:51;;;;;;;29.85;13.18;;;;;;;;;;5082630;28;20024;-54
2022/10/31 07:41:17;;;;;;;28.20;13.13;;;;;;;;;;5088790;28;20016;-57
2022/10/31 07:43:42;;;;;;;30.58;13.10;;;;;;;;;;5081384;28;20029;-57
2022/10/31 07:46:07;;;;;;;31.13;12.35;;;;;;;;;;5079229;28;20016;-55
2022/10/31 07:48:33;;;;;;;30.75;12.45;;;;;;;;;;5090488;28;20031;-55
2022/10/31 07:50:58;;;;;;;28.88;12.45;;;;;;;;;;5086129;28;20075;-58
2022/10/31 07:53:23;;;;;;;27.02;11.85;;;;;;;;;;5093213;28;20024;-55
2022/10/31 07:55:48;;;;;;;25.73;11.35;;;;;;;;;;5078071;28;20024;-55
2022/10/31 07:58:14;;;;;;;27.30;11.52;;;;;;;;;;5085470;28;20016;-55
2022/10/31 08:00:40;;;;;;;25.25;12.10;;;;;;;;;;5096114;28;20027;-56
2022/10/31 08:03:06;;;;;;;23.17;10.43;;;;;;;;;;5087482;28;20103;-55
2022/10/31 08:05:32;;;;;;;20.88;10.05;;;;;;;;;;5085084;28;20098;-54
2022/10/31 08:07:57;;;;;;;20.05;9.10;;;;;;;;;;5090260;28;20044;-55
2022/10/31 08:10:23;;;;;;;21.42;9.63;;;;;;;;;;5084983;28;20500;-57
2022/10/31 08:12:58;;;;;;;18.35;8.25;;;;;;;;;;5085637;28;20089;-57
2022/10/31 08:15:23;;;;;;;16.67;8.82;;;;;;;;;;5092925;28;20034;-58
2022/10/31 08:17:49;;;;;;;17.88;8.65;;;;;;;;;;5088753;28;20024;-58
2022/10/31 08:20:14;;;;;;;16.10;7.85;;;;;;;;;;5081320;28;20187;-56
2022/10/31 08:22:39;;;;;;;14.80;8.73;;;;;;;;;;5090909;28;20107;-57
2022/10/31 08:25:04;;;;;;;17.63;9.57;;;;;;;;;;5082776;28;20020;-57
2022/10/31 08:27:30;;;;;;;18.80;7.43;;;;;;;;;;5090923;28;20027;-57
2022/10/31 08:29:55;;;;;;;17.05;8.25;;;;;;;;;;5090366;28;20031;-56
2022/10/31 08:32:20;;;;;;;14.55;7.28;;;;;;;;;;5084119;28;20466;-57
2022/10/31 08:34:45;;;;;;;18.40;6.82;;;;;;;;;;5087103;28;20098;-57
2022/10/31 08:37:11;;;;;;;17.75;7.72;;;;;;;;;;5077818;28;20021;-56
2022/10/31 08:39:36;;;;;;;17.35;7.32;;;;;;;;;;5090706;28;20386;-56
2022/10/31 08:42:01;;;;;;;15.55;7.10;;;;;;;;;;5083042;28;20099;-56
2022/10/31 08:44:26;;;;;;;13.38;6.30;;;;;;;;;;5087712;28;20028;-56
2022/10/31 08:46:52;;;;;;;12.43;7.47;;;;;;;;;;5093303;28;20569;-57
2022/10/31 08:49:17;;;;;;;14.85;6.32;;;;;;;;;;5084503;28;20024;-56
2022/10/31 08:51:42;;;;;;;19.92;7.60;;;;;;;;;;5086219;28;20020;-57
2022/10/31 08:54:07;;;;;;;13.27;7.00;;;;;;;;;;5097091;28;20068;-55
2022/10/31 08:56:32;;;;;;;13.07;7.63;;;;;;;;;;5090703;28;20024;-56
2022/10/31 08:58:58;;;;;;;15.60;8.20;;;;;;;;;;5088176;28;20023;-57
2022/10/31 09:01:23;;;;;;;16.70;8.32;;;;;;;;;;5089384;28;20081;-58
2022/10/31 09:03:48;;;;;;;12.02;6.53;;;;;;;;;;5082012;28;20490;-58
2022/10/31 09:06:14;;;;;;;17.80;7.80;;;;;;;;;;5077681;28;20047;-55
2022/10/31 09:08:39;;;;;;;13.27;6.63;;;;;;;;;;5080996;28;20104;-56
2022/10/31 09:11:06;;;;;;;11.73;6.47;;;;;;;;;;5088830;28;20030;-56
2022/10/31 09:13:31;;;;;;;11.63;6.55;;;;;;;;;;5091230;28;20017;-56
2022/10/31 09:15:57;;;;;;;12.98;6.60;;;;;;;;;;5082023;28;20032;-56
2022/10/31 09:18:22;;;;;;;15.52;7.15;;;;;;;;;;5085490;28;20158;-56
2022/10/31 09:20:48;;;;;;;13.00;7.35;;;;;;;;;;5083848;28;20122;-56
2022/10/31 09:23:14;;;;;;;13.13;7.50;;;;;;;;;;5088987;28;20657;-58
2022/10/31 09:25:40;;;;;;;16.67;7.35;;;;;;;;;;5080445;28;20481;-58
2022/10/31 09:28:05;;;;;;;16.50;8.38;;;;;;;;;;5081550;28;20021;-58
2022/10/31 09:30:31;;;;;;;16.45;8.20;;;;;;;;;;5070855;28;20028;-56
2022/10/31 09:32:57;;;;;;;26.05;8.77;;;;;;;;;;5082152;28;20024;-57
2022/10/31 09:35:22;;;;;;;21.38;8.75;;;;;;;;;;5085919;28;20032;-57
2022/10/31 09:37:53;;;;;;;29.42;9.10;;;;;;;;;;5085578;28;20489;-58
2022/10/31 09:40:18;;;;;;;24.02;8.90;;;;;;;;;;5086530;28;20057;-58
2022/10/31 09:42:43;;;;;;;22.20;10.02;;;;;;;;;;5088551;28;20103;-56
2022/10/31 09:45:12;;;;;;;38.92;11.05;;;;;;;;;;5084338;28;20175;-55
2022/10/31 09:47:37;;;;;;;30.08;10.75;;;;;;;;;;5089773;28;20028;-56
2022/10/31 09:50:07;;;;;;;25.58;10.88;;;;;;;;;;5092713;28;20038;-55
2022/10/31 09:52:33;;;;;;;26.17;11.43;;;;;;;;;;5079039;28;20026;-56
2022/10/31 09:55:15;;;;;;;43.08;11.20;;;;;;;;;;5069301;28;20036;-56
2022/10/31 09:57:41;;;;;;;32.53;11.13;;;;;;;;;;5067481;28;20113;-56
2022/10/31 10:00:06;;;;;;;27.08;11.30;;;;;;;;;;5075603;28;20474;-56
2022/10/31 10:02:34;;;;;;;22.48;11.15;;;;;;;;;;5076996;28;20057;-55
2022/10/31 10:05:04;;;;;;;23.10;11.07;;;;;;;;;;5073120;28;20501;-58
2022/10/31 10:07:32;;;;;;;23.15;11.07;;;;;;;;;;5076805;28;20447;-56
2022/10/31 10:09:57;;;;;;;24.63;10.85;;;;;;;;;;5076042;28;20047;-56
2022/10/31 10:12:26;;;;;;;25.83;11.23;;;;;;;;;;5073079;28;20378;-56
2022/10/31 10:14:55;;;;;;;32.15;12.25;;;;;;;;;;5074879;28;20446;-56
2022/10/31 10:17:39;;;;;;;22.70;11.50;;;;;;;;;;5075439;28;20039;-55
2022/10/31 10:20:04;;;;;;;36.65;11.45;;;;;;;;;;5075099;28;20036;-59
2022/10/31 10:22:31;;;;;;;31.08;12.25;;;;;;;;;;5071211;28;20031;-57
2022/10/31 10:24:59;;;;;;;22.00;12.20;;;;;;;;;;5061887;28;20499;-57
2022/10/31 10:27:31;;;;;;;21.90;10.93;;;;;;;;;;5065483;28;20051;-57
2022/10/31 10:30:22;;;;;;;26.27;12.18;;;;;;;;;;5063509;28;20073;-57
2022/10/31 10:32:49;;;;;;;15.80;10.18;;;;;;;;;;5063373;28;20024;-57
2022/10/31 10:35:17;;;;;;;29.08;12.68;;;;;;;;;;5069949;28;20059;-56
2022/10/31 10:37:42;;;;;;;25.02;10.80;;;;;;;;;;5062069;28;20031;-56
2022/10/31 10:40:16;;;;;;;24.08;10.95;;;;;;;;;;5067758;28;20342;-56
2022/10/31 10:43:42;;;;;;;24.30;11.95;;;;;;;;;;5068517;28;20482;-57
2022/10/31 10:48:25;;;;;;;23.70;11.27;;;;;;;;;;5084046;28;20836;-57
2022/10/31 10:50:51;;;;;;;22.48;11.02;;;;;;;;;;5093796;28;20043;-57
2022/10/31 10:53:21;;;;;;;28.20;10.80;;;;;;;;;;5089950;28;20019;-57
2022/10/31 10:55:56;;;;;;;26.40;10.77;;;;;;;;;;5088947;28;20465;-57
2022/10/31 10:58:22;;;;;;;34.38;11.50;;;;;;;;;;5090543;28;20202;-56
2022/10/31 11:00:47;;;;;;;22.30;11.15;;;;;;;;;;5093731;28;20316;-57
2022/10/31 11:03:13;;;;;;;31.30;11.38;;;;;;;;;;5086502;28;20024;-56
2022/10/31 11:05:39;;;;;;;22.10;10.55;;;;;;;;;;5071852;28;20277;-57
2022/10/31 11:08:05;;;;;;;27.15;11.45;;;;;;;;;;5069679;28;20013;-57
2022/10/31 11:10:30;;;;;;;28.73;10.82;;;;;;;;;;5076431;28;20028;-57
2022/10/31 11:13:19;;;;;;;25.08;10.85;;;;;;;;;;5077662;28;20687;-56
2022/10/31 11:15:58;;;;;;;21.92;10.25;;;;;;;;;;5066546;28;20032;-57
2022/10/31 11:18:27;;;;;;;24.02;12.07;;;;;;;;;;5081617;28;20627;-56
2022/10/31 11:20:53;;;;;;;26.05;11.23;;;;;;;;;;5079427;28;20028;-56
2022/10/31 11:23:19;;;;;;;25.08;10.60;;;;;;;;;;5086598;28;20027;-58
2022/10/31 11:25:58;;;;;;;21.65;10.13;;;;;;;;;;5085640;28;20015;-57
2022/10/31 11:28:23;;;;;;;24.85;11.18;;;;;;;;;;5089371;28;20066;-56
2022/10/31 11:30:50;;;;;;;25.92;10.15;;;;;;;;;;5089280;28;20039;-56
2022/10/31 11:33:20;;;;;;;25.08;11.30;;;;;;;;;;5083613;28;20027;-58
2022/10/31 11:35:45;;;;;;;20.42;10.40;;;;;;;;;;5089930;28;20031;-58
2022/10/31 11:38:14;;;;;;;25.70;12.05;;;;;;;;;;5083505;28;20040;-58
2022/10/31 11:40:40;;;;;;;24.30;11.43;;;;;;;;;;5074491;28;20015;-56
2022/10/31 11:43:12;;;;;;;19.90;10.30;;;;;;;;;;5070127;28;20264;-56
2022/10/31 11:45:37;;;;;;;23.20;10.27;;;;;;;;;;5071941;28;20035;-56
2022/10/31 11:48:12;;;;;;;21.33;10.80;;;;;;;;;;5079680;28;20020;-58
2022/10/31 11:50:39;;;;;;;20.88;11.02;;;;;;;;;;5078461;28;20039;-55
2022/10/31 11:53:11;;;;;;;19.52;10.40;;;;;;;;;;5076697;28;20066;-56
2022/10/31 11:55:37;;;;;;;18.52;10.38;;;;;;;;;;5086508;28;20028;-55
2022/10/31 11:58:02;;;;;;;20.27;10.85;;;;;;;;;;5079984;28;20024;-58
2022/10/31 12:00:29;;;;;;;20.05;10.27;;;;;;;;;;5083563;28;20107;-57
2022/10/31 12:03:13;;;;;;;19.63;10.18;;;;;;;;;;5075500;28;20054;-57
2022/10/31 12:05:38;;;;;;;22.15;10.07;;;;;;;;;;5078842;28;20070;-57
2022/10/31 12:08:03;;;;;;;21.13;10.02;;;;;;;;;;5073948;28;20036;-57
2022/10/31 12:10:34;;;;;;;30.05;10.95;;;;;;;;;;5077403;28;20035;-57
2022/10/31 12:13:18;;;;;;;22.70;10.70;;;;;;;;;;5084147;28;20024;-58
2022/10/31 12:15:46;;;;;;;19.55;9.70;;;;;;;;;;5083952;28;20425;-57
2022/10/31 12:18:14;;;;;;;20.88;10.38;;;;;;;;;;5075468;28;20482;-57
2022/10/31 12:20:51;;;;;;;18.42;10.20;;;;;;;;;;5093428;28;20066;-57
2022/10/31 12:23:26;;;;;;;16.13;9.50;;;;;;;;;;5080393;28;20060;-58
2022/10/31 12:26:06;;;;;;;19.08;9.90;;;;;;;;;;5072322;28;20334;-57
2022/10/31 12:28:46;;;;;;;23.33;10.20;;;;;;;;;;5075722;28;20025;-57
2022/10/31 12:31:30;;;;;;;15.93;10.05;;;;;;;;;;5079673;28;20390;-57
2022/10/31 12:34:14;;;;;;;22.35;9.60;;;;;;;;;;5078666;28;20112;-57
2022/10/31 12:36:48;;;;;;;20.17;8.93;;;;;;;;;;5073112;28;20055;-57
2022/10/31 12:39:20;;;;;;;22.48;9.32;;;;;;;;;;5072519;28;20032;-56
2022/10/31 12:41:46;;;;;;;16.45;8.95;;;;;;;;;;5074224;28;20032;-57
2022/10/31 12:44:23;;;;;;;18.13;9.38;;;;;;;;;;5075372;28;20028;-57
2022/10/31 12:46:53;;;;;;;20.45;9.60;;;;;;;;;;5074008;28;20028;-57
2022/10/31 12:49:37;;;;;;;20.95;11.02;;;;;;;;;;5079204;28;20027;-57
2022/10/31 12:52:11;;;;;;;24.35;10.32;;;;;;;;;;5090647;28;20328;-57
2022/10/31 12:54:37;;;;;;;23.70;10.18;;;;;;;;;;5072884;28;20039;-57
2022/10/31 12:57:07;;;;;;;20.58;9.10;;;;;;;;;;5078777;28;20020;-57
2022/10/31 12:59:40;;;;;;;25.50;9.77;;;;;;;;;;5083314;28;20521;-57
2022/10/31 13:02:24;;;;;;;21.88;9.35;;;;;;;;;;5087435;28;20024;-58
2022/10/31 13:04:56;;;;;;;22.10;10.00;;;;;;;;;;5074664;28;20039;-57
2022/10/31 13:07:23;;;;;;;18.95;9.43;;;;;;;;;;5072349;28;20139;-58
2022/10/31 13:10:14;;;;;;;23.95;9.38;;;;;;;;;;5076132;28;20425;-57
2022/10/31 13:12:40;;;;;;;27.50;9.30;;;;;;;;;;5054653;28;20032;-58
2022/10/31 13:15:16;;;;;;;21.58;8.80;;;;;;;;;;5075612;28;20390;-57
2022/10/31 13:17:46;;;;;;;21.42;9.65;;;;;;;;;;5077853;28;20465;-58
2022/10/31 13:20:14;;;;;;;24.80;10.15;;;;;;;;;;5081345;28;20047;-58
2022/10/31 13:22:39;;;;;;;16.33;8.93;;;;;;;;;;5083483;28;20109;-58
2022/10/31 13:25:19;;;;;;;21.58;8.52;;;;;;;;;;5081702;28;20657;-58
2022/10/31 13:27:48;;;;;;;24.52;8.73;;;;;;;;;;5080536;28;20012;-58
2022/10/31 13:30:15;;;;;;;24.50;8.60;;;;;;;;;;5080142;28;20110;-55
2022/10/31 13:32:43;;;;;;;19.58;8.35;;;;;;;;;;5082924;28;20267;-56
2022/10/31 13:35:12;;;;;;;23.38;8.88;;;;;;;;;;5084957;28;20501;-56
2022/10/31 13:37:39;;;;;;;16.27;8.43;;;;;;;;;;5083360;28;20024;-56
2022/10/31 13:40:07;;;;;;;36.72;10.40;;;;;;;;;;5080838;28;20023;-56
2022/10/31 13:42:51;;;;;;;30.10;10.50;;;;;;;;;;5079503;28;20081;-55
2022/10/31 13:45:20;;;;;;;19.60;9.25;;;;;;;;;;5082103;28;20024;-55
2022/10/31 13:47:55;;;;;;;26.25;9.98;;;;;;;;;;5087706;28;20031;-56
2022/10/31 13:50:21;;;;;;;25.95;9.05;;;;;;;;;;5080169;28;20032;-54
2022/10/31 13:52:47;;;;;;;26.40;9.35;;;;;;;;;;5097034;27;20062;-57
2022/10/31 13:55:30;;;;;;;24.95;9.68;;;;;;;;;;5082150;28;20031;-56
2022/10/31 13:57:56;;;;;;;26.00;7.78;;;;;;;;;;5080196;28;20024;-57
2022/10/31 14:00:25;;;;;;;27.15;8.98;;;;;;;;;;5089651;28;20020;-57
2022/10/31 14:03:00;;;;;;;26.02;8.88;;;;;;;;;;5089221;28;20035;-57
2022/10/31 14:05:25;;;;;;;27.45;9.50;;;;;;;;;;5082554;28;20020;-57
2022/10/31 14:07:51;;;;;;;29.70;8.93;;;;;;;;;;5081283;28;20032;-57
2022/10/31 14:10:19;;;;;;;30.42;9.20;;;;;;;;;;5084323;28;20040;-56
2022/10/31 14:12:44;;;;;;;25.20;9.02;;;;;;;;;;5076352;28;20044;-56
2022/10/31 14:15:15;;;;;;;24.67;9.40;;;;;;;;;;5082924;28;20086;-57
2022/10/31 14:17:40;;;;;;;;;;;;;;;;;;5095140;28;20019;-57
2022/10/31 14:20:11;;;;;;;27.40;9.45;;;;;;;;;;5075483;28;20373;-57
2022/10/31 14:22:37;;;;;;;28.85;9.27;;;;;;;;;;5084980;28;20020;-57
2022/10/31 14:25:22;;;;;;;28.52;8.63;;;;;;;;;;5086273;28;20028;-57
2022/10/31 14:27:48;;;;;;;25.17;8.35;;;;;;;;;;5075374;28;20466;-57
2022/10/31 14:30:14;;;;;;;29.17;8.95;;;;;;;;;;5083854;28;20032;-56